Atwood, Wisconsin
Current Conditions -  °F | °C
As of 5:55 PM on Thursday 27 Nov 2014 (Local Time) from KMDZ Reporting Station
Clear Clear  
Wind Chill:   Ceiling: Unl
Heat Index:   Visibility: 10mi
Dew Point: -4°   Wind: 3mph
Humidity: 70%   Direction: 230°SW
Pressure: 30.32"   Gusts: NA
Location:  44.9782°N, 90.5368°W
Report Text: KMDZ 272355Z AUTO 23003KT 10SM CLR M15/M20 A3032 RMK AO2 T11551198 11115 21160
Loading
Personal Weather Stations






























Interactive Weather Map New forecast layout! Learn more

10-Day Weather Forecast

Advertisements
Track Severe Weather on mobile